Time;durP1;ratioP1;P1;durP2;ratioP2;P2;SDS_P1;SDS_P2;PMS_P1;PMS_P2;Temp;Humidity;BMP_temperature;BMP_pressure;BME280_temperature;BME280_humidity;BME280_pressure;Samples;Min_cycle;Max_cycle;Signal;HPM_P1;HPM_P2
2023/03/03 00:00:51;;;;;;;19.93;12.17;;;2.00;99.90;;;;;;5043059;28;20709;-78
2023/03/03 00:03:20;;;;;;;22.40;12.10;;;2.00;99.90;;;;;;5052403;28;20294;-77
2023/03/03 00:05:46;;;;;;;22.70;12.33;;;2.00;99.90;;;;;;5043102;28;20690;-77
2023/03/03 00:08:12;;;;;;;21.37;12.17;;;2.00;99.90;;;;;;5051173;28;20207;-77
2023/03/03 00:10:38;;;;;;;22.33;12.47;;;2.00;99.90;;;;;;5051478;28;20704;-78
2023/03/03 00:13:05;;;;;;;22.90;12.83;;;2.00;99.90;;;;;;5052854;28;20292;-77
2023/03/03 00:15:31;;;;;;;20.10;11.97;;;2.00;99.90;;;;;;5052359;28;20215;-77
2023/03/03 00:17:58;;;;;;;22.50;13.03;;;1.90;99.90;;;;;;5052123;28;20300;-77
2023/03/03 00:20:37;;;;;;;23.30;12.93;;;1.90;99.90;;;;;;5052678;28;20254;-77
2023/03/03 00:23:24;;;;;;;24.40;12.23;;;2.00;99.90;;;;;;5052350;28;20207;-77
2023/03/03 00:25:52;;;;;;;23.43;12.63;;;2.00;99.90;;;;;;5051324;28;20266;-77
2023/03/03 00:28:31;;;;;;;19.47;11.97;;;2.00;99.90;;;;;;5052107;28;20213;-77
2023/03/03 00:30:59;;;;;;;21.90;12.70;;;1.90;99.90;;;;;;5029236;28;20548;-77
2023/03/03 00:33:28;;;;;;;19.87;11.90;;;1.80;99.90;;;;;;5032729;28;20800;-78
2023/03/03 00:36:27;;;;;;;21.47;12.30;;;1.60;99.90;;;;;;5052165;28;20254;-77
2023/03/03 00:38:54;;;;;;;24.07;13.00;;;1.70;99.90;;;;;;5034555;28;20266;-77
2023/03/03 00:41:25;;;;;;;21.37;12.23;;;1.80;99.90;;;;;;5050933;28;20318;-78
2023/03/03 00:43:51;;;;;;;21.40;12.43;;;2.00;99.90;;;;;;5050309;28;20197;-77
2023/03/03 00:46:18;;;;;;;22.57;12.30;;;1.90;99.90;;;;;;5050641;28;20218;-77
2023/03/03 00:48:45;;;;;;;24.30;12.67;;;2.00;99.90;;;;;;5048179;28;20236;-76
2023/03/03 00:51:33;;;;;;;24.10;13.13;;;2.00;99.90;;;;;;5032926;28;20211;-77
2023/03/03 00:53:59;;;;;;;22.40;12.07;;;1.90;99.90;;;;;;5027860;28;20258;-76
2023/03/03 00:56:26;;;;;;;22.77;12.30;;;1.90;99.90;;;;;;5050753;28;20717;-77
2023/03/03 00:58:51;;;;;;;19.40;11.30;;;2.00;99.90;;;;;;5051158;28;20209;-76
2023/03/03 01:01:17;;;;;;;26.07;12.90;;;2.00;99.90;;;;;;5049318;28;20212;-77
2023/03/03 01:03:43;;;;;;;22.53;12.97;;;1.90;99.90;;;;;;5032738;28;20214;-78
2023/03/03 01:06:10;;;;;;;20.83;12.03;;;2.00;99.90;;;;;;5050794;28;20630;-77
2023/03/03 01:08:36;;;;;;;21.27;12.27;;;2.00;99.90;;;;;;5030150;28;20745;-77
2023/03/03 01:11:12;;;;;;;21.37;11.47;;;2.00;99.90;;;;;;5046860;28;20183;-77
2023/03/03 01:13:41;;;;;;;22.47;12.77;;;1.90;99.90;;;;;;5033309;28;20213;-76
2023/03/03 01:16:07;;;;;;;22.43;12.63;;;1.90;99.90;;;;;;5050680;28;20227;-78
2023/03/03 01:18:35;;;;;;;25.47;13.33;;;1.90;99.90;;;;;;5050587;28;20717;-77
2023/03/03 01:21:01;;;;;;;21.20;12.23;;;1.90;99.90;;;;;;5050350;28;20218;-77
2023/03/03 01:23:27;;;;;;;23.40;12.87;;;1.80;99.90;;;;;;5047385;28;20215;-76
2023/03/03 01:25:53;;;;;;;21.57;12.73;;;1.90;99.90;;;;;;5042434;28;20187;-76
2023/03/03 01:28:18;;;;;;;22.13;11.97;;;1.80;99.90;;;;;;5050639;28;20314;-77
2023/03/03 01:30:44;;;;;;;23.73;13.07;;;1.90;99.90;;;;;;5050062;28;20211;-76
2023/03/03 01:33:10;;;;;;;26.30;13.07;;;1.80;99.90;;;;;;5050655;28;20214;-76
2023/03/03 01:35:35;;;;;;;25.57;13.60;;;1.60;99.90;;;;;;5032842;28;20289;-77
2023/03/03 01:38:01;;;;;;;23.10;12.87;;;1.70;99.90;;;;;;5050199;28;20248;-77
2023/03/03 01:40:29;;;;;;;23.00;13.07;;;1.70;99.90;;;;;;5050701;28;20200;-76
2023/03/03 01:42:55;;;;;;;24.83;14.00;;;1.80;99.90;;;;;;5037580;28;20636;-76
2023/03/03 01:45:27;;;;;;;23.80;13.93;;;1.80;99.90;;;;;;5050224;28;20220;-76
2023/03/03 01:48:11;;;;;;;21.30;12.27;;;1.70;99.90;;;;;;5047783;28;20628;-76
2023/03/03 01:50:42;;;;;;;24.67;14.00;;;1.60;99.90;;;;;;5049965;28;20267;-77
2023/03/03 01:53:14;;;;;;;23.50;12.80;;;1.60;99.90;;;;;;5050148;28;20178;-77
2023/03/03 01:55:41;;;;;;;22.63;13.13;;;1.50;99.90;;;;;;5048639;28;20638;-75
2023/03/03 01:58:14;;;;;;;24.27;12.70;;;1.60;99.90;;;;;;5050072;28;20827;-77
2023/03/03 02:00:42;;;;;;;20.33;11.70;;;1.70;99.90;;;;;;5049713;28;20632;-75
2023/03/03 02:03:08;;;;;;;21.17;13.17;;;1.80;99.90;;;;;;5036527;28;20210;-77
2023/03/03 02:05:35;;;;;;;20.87;12.67;;;1.80;99.90;;;;;;5050008;28;20577;-78
2023/03/03 02:08:01;;;;;;;22.13;12.73;;;1.70;99.90;;;;;;5040563;28;20204;-77
2023/03/03 02:10:28;;;;;;;23.93;13.33;;;1.80;99.90;;;;;;5032472;28;20245;-76
2023/03/03 02:12:58;;;;;;;22.50;12.77;;;1.60;99.90;;;;;;5049879;28;20219;-75
2023/03/03 02:15:36;;;;;;;23.33;13.00;;;1.60;99.90;;;;;;5032003;28;20265;-78
2023/03/03 02:18:15;;;;;;;23.07;13.70;;;1.70;99.90;;;;;;5048811;28;20314;-75
2023/03/03 02:21:02;;;;;;;21.43;13.13;;;1.70;99.90;;;;;;5031935;28;20222;-76
2023/03/03 02:23:50;;;;;;;21.07;12.33;;;1.70;99.90;;;;;;5048426;28;20841;-77
2023/03/03 02:26:27;;;;;;;20.57;12.33;;;1.80;99.90;;;;;;5047929;28;20190;-76
2023/03/03 02:28:53;;;;;;;21.97;13.33;;;1.80;99.90;;;;;;5050312;28;20232;-76
2023/03/03 02:31:22;;;;;;;23.20;13.90;;;1.80;99.90;;;;;;5049609;28;20689;-76
2023/03/03 02:33:50;;;;;;;20.80;13.23;;;1.80;99.90;;;;;;5049783;28;20282;-77
2023/03/03 02:36:43;;;;;;;23.83;12.57;;;1.70;99.90;;;;;;5050064;28;20210;-77
2023/03/03 02:39:17;;;;;;;21.03;12.37;;;1.70;99.90;;;;;;5043284;28;20601;-76
2023/03/03 02:41:55;;;;;;;21.80;12.30;;;1.70;99.90;;;;;;5031569;28;20213;-75
2023/03/03 02:44:23;;;;;;;24.43;13.07;;;1.70;99.90;;;;;;5046902;28;20595;-75
2023/03/03 02:46:51;;;;;;;21.13;12.63;;;1.70;99.90;;;;;;5049683;28;20268;-76
2023/03/03 02:49:20;;;;;;;27.10;13.43;;;1.70;99.90;;;;;;5049497;28;20647;-76
2023/03/03 02:51:46;;;;;;;24.27;13.67;;;1.50;99.90;;;;;;5049430;28;20276;-76
2023/03/03 02:54:13;;;;;;;22.93;13.17;;;1.50;99.90;;;;;;5049924;28;20213;-77
2023/03/03 02:56:39;;;;;;;24.47;13.20;;;1.50;99.90;;;;;;5034305;28;20272;-76
2023/03/03 02:59:05;;;;;;;23.13;12.83;;;1.60;99.90;;;;;;5052793;28;20544;-77
2023/03/03 03:01:35;;;;;;;19.77;11.37;;;1.50;99.90;;;;;;5035376;28;20210;-77
2023/03/03 03:04:05;;;;;;;20.47;12.07;;;1.50;99.90;;;;;;5053195;28;20218;-77
2023/03/03 03:06:30;;;;;;;21.77;13.23;;;1.60;99.90;;;;;;5053134;28;20264;-77
2023/03/03 03:08:56;;;;;;;25.80;14.20;;;1.50;99.90;;;;;;5034671;28;20207;-75
2023/03/03 03:11:21;;;;;;;27.33;14.03;;;1.60;99.90;;;;;;5051656;28;20645;-76
2023/03/03 03:13:47;;;;;;;25.57;14.37;;;1.50;99.90;;;;;;5053201;28;20211;-76
2023/03/03 03:16:13;;;;;;;27.83;14.37;;;1.40;99.90;;;;;;5052618;28;20200;-77
2023/03/03 03:18:38;;;;;;;25.73;14.13;;;1.40;99.90;;;;;;5052690;28;20215;-76
2023/03/03 03:21:09;;;;;;;24.30;13.50;;;1.30;99.90;;;;;;5052331;28;20308;-77
2023/03/03 03:23:35;;;;;;;24.20;12.83;;;1.50;99.90;;;;;;5034698;28;20609;-76
2023/03/03 03:26:01;;;;;;;26.07;12.83;;;1.50;99.90;;;;;;5052286;28;20179;-76
2023/03/03 03:28:27;;;;;;;23.63;13.17;;;1.60;99.90;;;;;;5034969;28;20213;-77
2023/03/03 03:30:53;;;;;;;21.80;12.10;;;1.50;99.90;;;;;;5052219;28;20318;-77
2023/03/03 03:33:18;;;;;;;22.77;12.70;;;1.50;99.90;;;;;;5051472;28;20222;-75
2023/03/03 03:35:46;;;;;;;23.73;12.30;;;1.50;99.90;;;;;;5052146;28;20213;-76
2023/03/03 03:38:12;;;;;;;20.63;12.53;;;1.50;99.90;;;;;;5042476;28;20248;-77
2023/03/03 03:40:38;;;;;;;23.77;12.67;;;1.50;99.90;;;;;;5052712;28;20195;-75
2023/03/03 03:43:04;;;;;;;24.97;13.57;;;1.50;99.90;;;;;;5052197;28;20214;-77
2023/03/03 03:45:30;;;;;;;24.20;13.90;;;1.50;99.90;;;;;;5034238;28;20215;-77
2023/03/03 03:47:56;;;;;;;25.67;13.63;;;1.50;99.90;;;;;;5043112;28;20269;-76
2023/03/03 03:50:22;;;;;;;25.50;13.80;;;1.50;99.90;;;;;;5052485;28;20582;-75
2023/03/03 03:52:47;;;;;;;26.23;13.07;;;1.50;99.90;;;;;;5052890;28;20179;-74
2023/03/03 03:55:13;;;;;;;27.27;13.87;;;1.40;99.90;;;;;;5050224;28;20293;-76
2023/03/03 03:57:40;;;;;;;25.87;13.20;;;1.30;99.90;;;;;;5050519;28;20260;-76
2023/03/03 04:00:07;;;;;;;26.60;13.03;;;1.30;99.90;;;;;;5046948;28;20279;-76
2023/03/03 04:02:33;;;;;;;25.10;14.10;;;1.20;99.90;;;;;;5034068;28;20227;-76
2023/03/03 04:04:59;;;;;;;25.87;14.20;;;1.10;99.90;;;;;;5031923;28;20274;-76
2023/03/03 04:07:25;;;;;;;27.40;13.93;;;1.20;99.90;;;;;;5042368;28;20326;-77
2023/03/03 04:09:51;;;;;;;31.47;14.77;;;1.30;99.90;;;;;;5030752;28;20234;-76
2023/03/03 04:12:17;;;;;;;26.67;12.90;;;1.20;99.90;;;;;;5051520;28;20641;-76
2023/03/03 04:14:42;;;;;;;23.73;12.73;;;1.30;99.90;;;;;;5033686;28;20586;-76
2023/03/03 04:17:21;;;;;;;19.33;11.47;;;1.30;99.90;;;;;;5051306;28;20582;-77
2023/03/03 04:19:47;;;;;;;20.80;10.80;;;1.20;99.90;;;;;;5051854;28;20198;-76
2023/03/03 04:22:14;;;;;;;26.97;12.83;;;1.00;99.90;;;;;;5051143;28;20223;-76
2023/03/03 04:24:40;;;;;;;27.80;13.37;;;0.90;99.90;;;;;;5051372;28;20218;-77
2023/03/03 04:27:08;;;;;;;30.13;14.53;;;0.90;99.90;;;;;;5041980;28;20578;-76
2023/03/03 04:29:34;;;;;;;25.63;12.47;;;1.00;99.90;;;;;;5051064;28;20474;-75
2023/03/03 04:32:00;;;;;;;33.30;14.37;;;1.10;99.90;;;;;;5050280;28;20191;-76
2023/03/03 04:34:25;;;;;;;30.47;15.97;;;1.00;99.90;;;;;;5050222;28;20185;-76
2023/03/03 04:36:51;;;;;;;28.23;15.43;;;1.10;99.90;;;;;;5050818;28;20214;-74
2023/03/03 04:39:17;;;;;;;32.37;15.00;;;1.10;99.90;;;;;;5049889;28;20234;-75
2023/03/03 04:41:42;;;;;;;33.93;16.53;;;1.10;99.90;;;;;;5033084;28;20235;-76
2023/03/03 04:44:08;;;;;;;29.73;15.30;;;1.00;99.90;;;;;;5050594;28;20203;-76
2023/03/03 04:46:34;;;;;;;36.23;16.30;;;1.00;99.90;;;;;;5033606;28;20178;-76
2023/03/03 04:48:59;;;;;;;34.60;16.10;;;1.00;99.90;;;;;;5030420;28;20315;-76
2023/03/03 04:51:25;;;;;;;33.57;17.00;;;1.10;99.90;;;;;;5050763;28;20292;-75
2023/03/03 04:53:50;;;;;;;34.67;17.07;;;1.10;99.90;;;;;;5041635;28;20206;-74
2023/03/03 04:56:16;;;;;;;35.73;16.77;;;1.10;99.90;;;;;;5050644;28;20191;-75
2023/03/03 04:58:42;;;;;;;39.60;18.03;;;1.10;99.90;;;;;;5033154;28;20208;-76
2023/03/03 05:01:13;;;;;;;43.07;22.83;;;1.10;99.90;;;;;;5041241;28;21080;-76
2023/03/03 05:03:39;;;;;;;36.37;17.83;;;1.20;99.90;;;;;;5032951;28;20590;-75
2023/03/03 05:06:05;;;;;;;29.10;15.30;;;1.20;99.90;;;;;;5032594;28;20222;-77
2023/03/03 05:08:30;;;;;;;28.53;15.20;;;1.20;99.90;;;;;;5029207;28;20221;-76
2023/03/03 05:10:58;;;;;;;32.67;17.17;;;1.20;99.90;;;;;;5050730;28;20229;-76
2023/03/03 05:13:25;;;;;;;30.13;14.87;;;1.20;99.90;;;;;;5032897;28;20245;-76
2023/03/03 05:15:56;;;;;;;31.13;14.67;;;1.20;99.90;;;;;;5041564;28;20212;-76
2023/03/03 05:18:23;;;;;;;31.47;15.60;;;1.20;99.90;;;;;;5047483;28;20219;-76
2023/03/03 05:20:50;;;;;;;24.90;14.33;;;1.10;99.90;;;;;;5032287;28;20308;-76
2023/03/03 05:23:17;;;;;;;42.87;18.53;;;1.20;99.90;;;;;;5040390;28;20199;-76
2023/03/03 05:25:43;;;;;;;41.07;19.00;;;1.20;99.90;;;;;;5050760;28;20555;-77
2023/03/03 05:28:09;;;;;;;35.90;16.50;;;1.10;99.90;;;;;;5050060;28;20218;-76
2023/03/03 05:30:36;;;;;;;35.13;15.73;;;1.10;99.90;;;;;;5047409;28;20209;-76
2023/03/03 05:33:03;;;;;;;36.00;16.90;;;1.20;99.90;;;;;;5050062;28;20249;-76
2023/03/03 05:35:28;;;;;;;31.60;16.47;;;1.20;99.90;;;;;;5050092;28;20204;-76
2023/03/03 05:37:56;;;;;;;31.73;16.23;;;1.30;99.90;;;;;;5050730;28;20291;-74
2023/03/03 05:40:23;;;;;;;32.47;15.47;;;1.30;99.90;;;;;;5049599;28;20250;-76
2023/03/03 05:42:48;;;;;;;36.50;16.57;;;1.20;99.90;;;;;;5032060;28;20214;-76
2023/03/03 05:45:14;;;;;;;31.83;15.47;;;1.10;99.90;;;;;;5049551;28;20211;-77
2023/03/03 05:47:40;;;;;;;26.50;13.37;;;1.00;99.90;;;;;;5032021;28;20222;-77
2023/03/03 05:50:05;;;;;;;27.30;13.70;;;1.00;99.90;;;;;;5031758;28;20193;-76
2023/03/03 05:52:31;;;;;;;28.50;14.37;;;1.00;99.90;;;;;;5050245;28;20189;-76
2023/03/03 05:54:57;;;;;;;25.57;12.57;;;0.90;99.90;;;;;;5049844;28;20248;-76
2023/03/03 05:57:22;;;;;;;24.30;13.47;;;0.80;99.90;;;;;;5048033;28;20369;-76
2023/03/03 05:59:48;;;;;;;26.63;13.73;;;0.70;99.90;;;;;;5029803;28;20770;-76
2023/03/03 06:02:14;;;;;;;31.17;15.50;;;0.80;99.90;;;;;;5050288;28;20239;-76
2023/03/03 06:04:40;;;;;;;29.43;13.87;;;0.90;99.90;;;;;;5032576;28;20248;-76
2023/03/03 06:07:05;;;;;;;29.27;14.07;;;0.90;99.90;;;;;;5049521;28;20263;-77
2023/03/03 06:09:32;;;;;;;23.43;12.97;;;1.00;99.90;;;;;;5032112;28;20209;-76
2023/03/03 06:11:58;;;;;;;23.50;12.80;;;1.00;99.90;;;;;;5049803;28;20209;-76
2023/03/03 06:14:24;;;;;;;24.70;12.67;;;1.00;99.90;;;;;;5032320;28;20211;-77
2023/03/03 06:16:49;;;;;;;28.77;11.87;;;1.00;99.90;;;;;;5031333;28;20175;-76
2023/03/03 06:19:15;;;;;;;25.03;12.67;;;1.00;99.90;;;;;;5049832;28;20210;-77
2023/03/03 06:21:41;;;;;;;26.43;12.53;;;1.00;99.90;;;;;;5049925;28;20299;-77
2023/03/03 06:24:07;;;;;;;22.57;12.37;;;1.10;99.90;;;;;;5030132;28;20211;-77
2023/03/03 06:26:33;;;;;;;33.30;13.03;;;1.10;99.90;;;;;;5049524;28;20222;-77
2023/03/03 06:29:00;;;;;;;32.33;14.50;;;1.20;99.90;;;;;;5049690;28;20221;-76
2023/03/03 06:31:26;;;;;;;36.73;15.63;;;1.20;99.90;;;;;;5034508;28;20550;-77
2023/03/03 06:33:52;;;;;;;34.90;15.60;;;1.10;99.90;;;;;;5053739;28;20204;-77
2023/03/03 06:36:19;;;;;;;33.73;15.83;;;1.20;99.90;;;;;;5053494;28;20207;-77
2023/03/03 06:38:44;;;;;;;36.57;16.17;;;1.10;99.90;;;;;;5035572;28;20228;-77
2023/03/03 06:41:10;;;;;;;29.57;14.67;;;1.00;99.90;;;;;;5044125;28;20204;-76
2023/03/03 06:43:36;;;;;;;28.70;13.10;;;1.10;99.90;;;;;;5054062;28;20685;-77
2023/03/03 06:46:03;;;;;;;24.80;13.53;;;1.20;99.90;;;;;;5035073;28;20234;-76
2023/03/03 06:48:32;;;;;;;23.63;12.70;;;1.20;99.90;;;;;;5053038;28;20217;-77
2023/03/03 06:51:00;;;;;;;29.03;14.13;;;1.20;99.90;;;;;;5032311;28;20207;-75
2023/03/03 06:53:26;;;;;;;31.23;14.53;;;1.10;99.90;;;;;;5053676;28;20201;-78
2023/03/03 06:55:55;;;;;;;31.10;14.70;;;1.10;99.90;;;;;;5053853;28;20181;-77
2023/03/03 06:58:21;;;;;;;34.50;14.60;;;1.20;99.90;;;;;;5053143;28;20212;-78
2023/03/03 07:00:58;;;;;;;32.83;15.13;;;1.20;99.90;;;;;;5034948;28;20750;-77
2023/03/03 07:03:28;;;;;;;34.67;16.73;;;1.30;99.90;;;;;;5050339;28;20303;-77
2023/03/03 07:05:54;;;;;;;40.07;18.00;;;1.30;99.90;;;;;;5053365;28;20303;-76
2023/03/03 07:08:22;;;;;;;38.70;17.50;;;1.40;99.90;;;;;;5043153;28;20228;-77
2023/03/03 07:10:49;;;;;;;39.20;17.17;;;1.30;99.90;;;;;;5035299;28;20183;-76
2023/03/03 07:13:28;;;;;;;44.97;18.77;;;1.40;99.90;;;;;;5053192;28;20210;-78
2023/03/03 07:15:57;;;;;;;41.93;18.93;;;1.40;99.90;;;;;;5048636;28;20264;-75
2023/03/03 07:18:45;;;;;;;47.97;20.43;;;1.30;99.90;;;;;;5041702;28;20297;-77
2023/03/03 07:21:16;;;;;;;46.00;20.83;;;1.30;99.90;;;;;;5032747;28;20265;-76
2023/03/03 07:23:43;;;;;;;48.63;19.73;;;1.20;99.90;;;;;;5052842;28;20758;-75
2023/03/03 07:26:13;;;;;;;45.57;19.43;;;1.20;99.90;;;;;;5052831;28;20231;-76
2023/03/03 07:28:42;;;;;;;43.57;18.63;;;1.20;99.90;;;;;;5053223;28;20194;-77
2023/03/03 07:31:33;;;;;;;45.73;19.77;;;1.30;99.90;;;;;;5052469;28;20290;-78
2023/03/03 07:34:00;;;;;;;37.47;17.40;;;1.30;99.90;;;;;;5031315;28;20199;-78
2023/03/03 07:36:34;;;;;;;38.63;15.83;;;1.40;99.90;;;;;;5052801;28;20207;-77
2023/03/03 07:39:15;;;;;;;33.77;15.07;;;1.40;99.90;;;;;;5034468;28;20688;-77
2023/03/03 07:41:42;;;;;;;34.97;16.07;;;1.40;99.90;;;;;;5047013;28;20208;-77
2023/03/03 07:44:33;;;;;;;31.67;14.60;;;1.40;99.90;;;;;;5044317;28;20237;-77
2023/03/03 07:47:31;;;;;;;42.50;17.63;;;1.40;99.90;;;;;;5048725;28;20178;-77
2023/03/03 07:50:06;;;;;;;45.40;19.17;;;1.40;99.90;;;;;;5038477;28;20263;-76
2023/03/03 07:52:39;;;;;;;35.80;16.83;;;1.20;99.90;;;;;;5033887;28;20239;-77
2023/03/03 07:55:31;;;;;;;40.50;17.57;;;1.20;99.90;;;;;;5049004;28;20291;-76
2023/03/03 07:58:11;;;;;;;28.33;13.23;;;1.30;99.90;;;;;;5048870;28;20731;-77
2023/03/03 08:01:15;;;;;;;27.73;11.90;;;1.30;99.90;;;;;;5051335;28;20203;-77
2023/03/03 08:03:43;;;;;;;24.30;11.43;;;1.30;99.90;;;;;;5027767;28;20204;-77
2023/03/03 08:06:28;;;;;;;22.80;11.80;;;1.30;99.90;;;;;;5051741;28;20710;-78
2023/03/03 08:08:57;;;;;;;25.00;11.83;;;1.30;99.90;;;;;;5048335;28;20695;-77
2023/03/03 08:11:24;;;;;;;26.40;12.40;;;1.40;99.90;;;;;;5051677;28;20286;-76
2023/03/03 08:13:49;;;;;;;25.53;11.63;;;1.50;99.90;;;;;;5034314;28;20192;-75
2023/03/03 08:16:15;;;;;;;22.23;11.23;;;1.60;99.90;;;;;;5051509;28;20293;-76
2023/03/03 08:18:47;;;;;;;21.30;10.73;;;1.60;99.90;;;;;;5049657;28;20207;-78
2023/03/03 08:21:22;;;;;;;21.30;10.10;;;1.70;99.90;;;;;;5033160;28;20221;-77
2023/03/03 08:23:50;;;;;;;20.10;10.47;;;1.60;99.90;;;;;;5048865;28;20268;-76
2023/03/03 08:26:20;;;;;;;21.00;10.37;;;1.60;99.90;;;;;;5051119;28;20187;-76
2023/03/03 08:28:46;;;;;;;20.87;10.23;;;1.70;99.90;;;;;;5051803;28;20249;-76
2023/03/03 08:31:12;;;;;;;18.13;9.63;;;1.90;99.90;;;;;;5051019;28;20724;-77
2023/03/03 08:33:38;;;;;;;22.17;9.37;;;1.90;99.90;;;;;;5051395;28;20201;-77
2023/03/03 08:36:05;;;;;;;23.83;11.60;;;1.90;99.90;;;;;;5050820;28;20209;-76
2023/03/03 08:38:31;;;;;;;19.67;9.83;;;1.90;99.90;;;;;;5047396;28;20207;-77
2023/03/03 08:40:56;;;;;;;19.17;9.40;;;1.80;99.90;;;;;;5051503;28;20242;-77
2023/03/03 08:43:23;;;;;;;19.17;9.67;;;1.80;99.90;;;;;;5051143;28;20213;-77
2023/03/03 08:45:51;;;;;;;21.83;10.83;;;1.90;99.90;;;;;;5051109;28;20207;-76
2023/03/03 08:48:18;;;;;;;31.43;15.57;;;2.10;99.90;;;;;;5050782;28;20222;-77
2023/03/03 08:50:44;;;;;;;26.30;12.50;;;2.20;99.90;;;;;;5031034;28;20215;-77
2023/03/03 08:53:11;;;;;;;25.47;11.93;;;2.20;99.90;;;;;;5032236;28;20175;-77
2023/03/03 08:55:37;;;;;;;22.50;10.93;;;2.20;99.90;;;;;;5051486;28;20665;-77
2023/03/03 08:58:03;;;;;;;17.17;9.10;;;2.20;99.90;;;;;;5051292;28;20204;-77
2023/03/03 09:00:28;;;;;;;17.37;8.80;;;2.00;99.90;;;;;;5040334;28;20232;-78
2023/03/03 09:02:54;;;;;;;16.93;8.07;;;1.90;99.90;;;;;;5033124;28;20200;-76
2023/03/03 09:05:21;;;;;;;15.80;7.73;;;1.90;99.90;;;;;;5032755;28;20561;-78
2023/03/03 09:07:47;;;;;;;19.37;9.33;;;1.90;99.90;;;;;;5033676;28;20197;-76
2023/03/03 09:10:18;;;;;;;18.20;9.60;;;1.90;99.90;;;;;;5028787;28;20200;-77
2023/03/03 09:12:47;;;;;;;22.27;11.73;;;2.00;99.90;;;;;;5050714;28;20279;-76
2023/03/03 09:15:27;;;;;;;21.80;11.23;;;2.10;99.90;;;;;;5030427;28;20570;-77
2023/03/03 09:17:56;;;;;;;24.67;11.20;;;2.20;99.90;;;;;;5029870;28;20310;-78
2023/03/03 09:20:39;;;;;;;23.73;11.17;;;2.30;99.90;;;;;;5050117;28;20220;-76
2023/03/03 09:23:30;;;;;;;22.17;11.77;;;2.40;99.90;;;;;;5046291;28;20646;-78
2023/03/03 09:26:17;;;;;;;23.67;11.13;;;2.50;99.90;;;;;;5041581;28;20182;-77
2023/03/03 09:28:43;;;;;;;21.00;10.77;;;2.50;99.90;;;;;;5029217;28;20214;-76
2023/03/03 09:31:20;;;;;;;20.60;10.87;;;2.70;99.90;;;;;;5050194;28;20632;-77
2023/03/03 09:33:50;;;;;;;18.83;9.90;;;2.80;99.90;;;;;;5048978;28;20199;-76
2023/03/03 09:36:36;;;;;;;24.03;12.90;;;2.80;99.90;;;;;;5050100;28;20751;-77
2023/03/03 09:39:18;;;;;;;24.67;12.80;;;2.80;99.90;;;;;;5046264;28;20295;-76
2023/03/03 09:41:50;;;;;;;27.20;13.60;;;2.70;99.90;;;;;;5045998;28;20208;-76
2023/03/03 09:44:24;;;;;;;29.30;14.67;;;2.60;99.90;;;;;;5031837;28;20263;-77
2023/03/03 09:47:18;;;;;;;24.80;12.40;;;2.70;99.90;;;;;;5050206;28;20546;-76
2023/03/03 09:50:08;;;;;;;23.07;11.50;;;2.80;99.90;;;;;;5028729;23;20230;-77
2023/03/03 09:52:45;;;;;;;19.13;9.37;;;2.80;99.90;;;;;;5080098;28;20214;-76
2023/03/03 09:55:38;;;;;;;17.17;9.57;;;2.90;99.90;;;;;;5065944;28;20206;-75
2023/03/03 09:58:13;;;;;;;19.13;9.27;;;2.90;99.90;;;;;;5067558;28;20351;-75
2023/03/03 10:01:04;;;;;;;17.90;8.93;;;3.00;99.90;;;;;;5068772;28;20218;-76
2023/03/03 10:03:38;;;;;;;15.43;8.03;;;3.20;99.90;;;;;;5064017;28;20305;-76
2023/03/03 10:06:40;;;;;;;33.63;18.50;;;3.20;99.90;;;;;;5067778;28;20279;-76
2023/03/03 10:09:34;;;;;;;23.57;13.83;;;3.20;99.90;;;;;;5063148;28;20304;-76
2023/03/03 10:12:05;;;;;;;20.80;11.20;;;3.30;99.90;;;;;;5071975;28;20218;-77
2023/03/03 10:14:31;;;;;;;17.17;9.27;;;3.40;99.90;;;;;;5072050;28;20206;-76
2023/03/03 10:17:14;;;;;;;17.10;8.30;;;3.20;99.90;;;;;;5072866;28;20184;-77
2023/03/03 10:19:45;;;;;;;14.20;8.00;;;3.30;99.90;;;;;;5073306;28;20213;-76
2023/03/03 10:22:28;;;;;;;15.43;8.67;;;3.30;99.90;;;;;;5072494;28;20215;-75
2023/03/03 10:25:01;;;;;;;16.53;9.67;;;3.30;99.90;;;;;;5069362;28;20268;-71
2023/03/03 10:27:35;;;;;;;21.60;12.13;;;3.40;99.90;;;;;;5073596;28;20292;-70
2023/03/03 10:30:16;;;;;;;16.20;9.33;;;3.60;99.90;;;;;;5067098;28;20298;-73
2023/03/03 10:32:53;;;;;;;15.40;8.80;;;3.60;99.90;;;;;;5072776;28;20685;-73
2023/03/03 10:35:50;;;;;;;16.27;9.10;;;3.50;99.90;;;;;;5062051;28;20211;-71
2023/03/03 10:39:02;;;;;;;19.23;8.40;;;3.50;99.90;;;;;;5069312;28;20186;-73
2023/03/03 10:41:49;;;;;;;17.63;9.57;;;3.30;99.90;;;;;;5031351;28;20310;-74
2023/03/03 10:44:40;;;;;;;17.13;9.70;;;3.30;99.90;;;;;;5070781;28;20228;-73
2023/03/03 10:47:41;;;;;;;17.07;8.57;;;3.40;99.90;;;;;;5064003;28;20579;-75
2023/03/03 10:50:12;;;;;;;18.90;9.70;;;3.60;99.90;;;;;;5069812;28;20283;-75
2023/03/03 10:53:04;;;;;;;19.20;10.20;;;3.70;99.90;;;;;;5069590;28;20175;-72
2023/03/03 10:56:09;;;;;;;21.63;9.80;;;3.70;99.90;;;;;;5066645;28;20217;-73
2023/03/03 10:58:58;;;;;;;22.90;11.07;;;3.60;99.90;;;;;;5071520;28;20215;-76
2023/03/03 11:01:50;;;;;;;28.03;12.03;;;3.50;99.90;;;;;;5072420;28;20227;-77
2023/03/03 11:04:18;;;;;;;25.10;12.70;;;3.50;99.90;;;;;;5073137;28;20217;-77
2023/03/03 11:07:08;;;;;;;28.53;14.57;;;3.40;99.90;;;;;;5069301;28;20229;-77
2023/03/03 11:09:53;;;;;;;36.07;18.13;;;3.40;99.90;;;;;;5073313;28;20207;-78
2023/03/03 11:12:44;;;;;;;28.73;15.17;;;3.30;99.90;;;;;;5073507;28;20228;-76
2023/03/03 11:15:36;;;;;;;33.10;15.60;;;3.50;99.90;;;;;;5069910;28;20204;-77
2023/03/03 11:18:10;;;;;;;29.53;13.40;;;3.70;99.90;;;;;;5069286;28;20242;-77
2023/03/03 11:20:51;;;;;;;27.43;13.47;;;3.80;99.90;;;;;;5065789;28;20275;-77
2023/03/03 11:23:23;;;;;;;24.13;12.33;;;3.80;99.90;;;;;;5072525;28;20248;-75
2023/03/03 11:26:12;;;;;;;23.30;12.33;;;3.80;99.90;;;;;;5072894;28;20184;-76
2023/03/03 11:28:47;;;;;;;26.10;12.53;;;3.80;99.90;;;;;;5069576;28;20218;-76
2023/03/03 11:31:33;;;;;;;29.10;13.37;;;3.90;99.90;;;;;;5069193;28;20208;-76
2023/03/03 11:34:29;;;;;;;32.77;16.43;;;4.00;99.90;;;;;;5048850;28;20254;-76
2023/03/03 11:37:03;;;;;;;31.70;16.73;;;4.00;99.90;;;;;;5070427;28;20214;-73
2023/03/03 11:39:29;;;;;;;29.67;14.93;;;4.10;99.90;;;;;;5072674;28;20226;-77
2023/03/03 11:42:16;;;;;;;27.40;13.73;;;4.20;99.90;;;;;;5068370;28;20220;-74
2023/03/03 11:44:47;;;;;;;27.20;13.27;;;4.10;99.90;;;;;;5069154;28;20206;-72
2023/03/03 11:47:39;;;;;;;27.27;12.80;;;4.00;99.90;;;;;;5072551;28;20201;-78
2023/03/03 11:50:08;;;;;;;24.33;13.07;;;4.00;99.90;;;;;;5070493;28;20303;-76
2023/03/03 11:52:42;;;;;;;28.40;13.03;;;4.10;99.90;;;;;;5071842;28;20255;-76
2023/03/03 11:55:36;;;;;;;29.57;13.87;;;4.10;99.90;;;;;;5069404;28;20543;-77
2023/03/03 11:58:15;;;;;;;26.90;13.13;;;4.20;99.90;;;;;;5070023;28;20263;-77
2023/03/03 12:00:46;;;;;;;31.27;13.33;;;4.20;99.90;;;;;;5071864;28;20209;-76
2023/03/03 12:03:15;;;;;;;24.33;12.53;;;4.10;99.90;;;;;;5070155;28;20205;-77
2023/03/03 12:06:06;;;;;;;23.10;11.90;;;4.10;99.90;;;;;;5070152;28;20203;-77
2023/03/03 12:08:39;;;;;;;26.00;12.57;;;4.00;99.90;;;;;;5063898;28;20213;-77
2023/03/03 12:11:23;;;;;;;26.30;12.30;;;4.10;99.90;;;;;;5071712;28;20185;-74
2023/03/03 12:14:10;;;;;;;26.43;12.17;;;4.00;99.90;;;;;;5069967;28;20179;-75
2023/03/03 12:17:09;;;;;;;25.77;13.20;;;3.90;99.90;;;;;;5071511;28;20730;-77
2023/03/03 12:19:47;;;;;;;27.50;13.43;;;4.00;99.90;;;;;;5069130;28;20635;-72
2023/03/03 12:22:37;;;;;;;29.93;13.67;;;4.10;99.90;;;;;;5069838;28;20733;-73
2023/03/03 12:25:23;;;;;;;27.43;12.70;;;4.20;99.90;;;;;;5067444;28;20626;-73
2023/03/03 12:28:07;;;;;;;26.50;12.30;;;4.30;99.90;;;;;;5066765;28;20285;-73
2023/03/03 12:30:58;;;;;;;24.17;12.73;;;4.40;99.90;;;;;;5070144;28;20299;-73
2023/03/03 12:33:33;;;;;;;25.63;13.03;;;4.30;99.90;;;;;;5069196;28;20226;-73
2023/03/03 12:36:29;;;;;;;25.73;12.57;;;4.30;99.90;;;;;;5070929;28;20684;-72
2023/03/03 12:39:07;;;;;;;24.97;12.93;;;4.40;99.90;;;;;;5070752;28;20588;-71
2023/03/03 12:41:36;;;;;;;27.83;12.63;;;4.40;99.90;;;;;;5069230;28;20231;-71
2023/03/03 12:44:26;;;;;;;30.80;14.00;;;4.50;99.90;;;;;;5069394;28;20291;-73
2023/03/03 12:47:10;;;;;;;28.17;13.27;;;4.50;99.90;;;;;;5066981;28;20184;-73
2023/03/03 12:49:53;;;;;;;25.27;13.20;;;4.50;99.90;;;;;;5066299;28;20302;-71
2023/03/03 12:52:45;;;;;;;26.63;12.97;;;4.40;99.90;;;;;;5070822;28;20753;-73
2023/03/03 12:55:33;;;;;;;24.47;12.43;;;4.50;99.90;;;;;;5070646;28;20622;-73
2023/03/03 12:58:09;;;;;;;26.50;12.87;;;4.50;99.90;;;;;;5064598;28;20790;-72
2023/03/03 13:00:47;;;;;;;26.73;13.27;;;4.60;99.90;;;;;;5062749;28;20220;-73
2023/03/03 13:03:37;;;;;;;22.60;12.20;;;4.50;99.90;;;;;;5070727;28;20324;-73
2023/03/03 13:06:06;;;;;;;30.10;14.70;;;4.30;99.90;;;;;;5085530;28;20201;-73